sensor_id;sensor_type;location;lat;lon;timestamp;P1;durP1;ratioP1;P2;durP2;ratioP2
18623;SDS011;9441;51.420;7.036;2024-02-21T00:00:02;34.07;;;11.33;;
18623;SDS011;9441;51.420;7.036;2024-02-21T00:01:05;35.37;;;10.97;;
18623;SDS011;9441;51.420;7.036;2024-02-21T00:02:07;36.40;;;11.10;;
18623;SDS011;9441;51.420;7.036;2024-02-21T00:03:08;35.90;;;10.73;;
18623;SDS011;9441;51.420;7.036;2024-02-21T00:04:10;34.47;;;11.03;;
18623;SDS011;9441;51.420;7.036;2024-02-21T00:05:11;33.93;;;11.27;;
18623;SDS011;9441;51.420;7.036;2024-02-21T00:06:13;33.93;;;11.57;;
18623;SDS011;9441;51.420;7.036;2024-02-21T00:07:14;31.53;;;10.60;;
18623;SDS011;9441;51.420;7.036;2024-02-21T00:08:16;34.23;;;11.30;;
18623;SDS011;9441;51.420;7.036;2024-02-21T00:09:17;37.63;;;11.77;;
18623;SDS011;9441;51.420;7.036;2024-02-21T00:10:19;35.60;;;10.87;;
18623;SDS011;9441;51.420;7.036;2024-02-21T00:11:23;35.87;;;11.40;;
18623;SDS011;9441;51.420;7.036;2024-02-21T00:12:24;31.17;;;11.33;;
18623;SDS011;9441;51.420;7.036;2024-02-21T00:13:26;35.20;;;11.77;;
18623;SDS011;9441;51.420;7.036;2024-02-21T00:14:27;32.50;;;11.63;;
18623;SDS011;9441;51.420;7.036;2024-02-21T00:15:29;31.47;;;11.67;;
18623;SDS011;9441;51.420;7.036;2024-02-21T00:16:30;38.50;;;12.13;;
18623;SDS011;9441;51.420;7.036;2024-02-21T00:17:32;35.10;;;11.60;;
18623;SDS011;9441;51.420;7.036;2024-02-21T00:18:33;35.70;;;11.40;;
18623;SDS011;9441;51.420;7.036;2024-02-21T00:19:35;36.23;;;11.50;;
18623;SDS011;9441;51.420;7.036;2024-02-21T00:20:36;39.37;;;11.67;;
18623;SDS011;9441;51.420;7.036;2024-02-21T00:21:38;36.37;;;11.60;;
18623;SDS011;9441;51.420;7.036;2024-02-21T00:22:39;38.17;;;11.63;;
18623;SDS011;9441;51.420;7.036;2024-02-21T00:23:41;31.30;;;11.60;;
18623;SDS011;9441;51.420;7.036;2024-02-21T00:24:42;31.57;;;11.13;;
18623;SDS011;9441;51.420;7.036;2024-02-21T00:25:44;34.43;;;11.67;;
18623;SDS011;9441;51.420;7.036;2024-02-21T00:26:47;41.77;;;12.23;;
18623;SDS011;9441;51.420;7.036;2024-02-21T00:27:49;32.83;;;11.73;;
18623;SDS011;9441;51.420;7.036;2024-02-21T00:28:50;30.53;;;10.67;;
18623;SDS011;9441;51.420;7.036;2024-02-21T00:29:52;31.60;;;10.90;;
18623;SDS011;9441;51.420;7.036;2024-02-21T00:30:53;40.07;;;11.80;;
18623;SDS011;9441;51.420;7.036;2024-02-21T00:31:55;33.13;;;11.43;;
18623;SDS011;9441;51.420;7.036;2024-02-21T00:32:56;33.93;;;11.60;;
18623;SDS011;9441;51.420;7.036;2024-02-21T00:33:58;41.23;;;12.27;;
18623;SDS011;9441;51.420;7.036;2024-02-21T00:34:59;32.90;;;12.23;;
18623;SDS011;9441;51.420;7.036;2024-02-21T00:36:01;39.13;;;11.97;;
18623;SDS011;9441;51.420;7.036;2024-02-21T00:37:02;41.40;;;11.57;;
18623;SDS011;9441;51.420;7.036;2024-02-21T00:38:04;31.13;;;11.37;;
18623;SDS011;9441;51.420;7.036;2024-02-21T00:39:05;32.67;;;11.40;;
18623;SDS011;9441;51.420;7.036;2024-02-21T00:40:08;31.57;;;11.40;;
18623;SDS011;9441;51.420;7.036;2024-02-21T00:41:09;36.03;;;11.43;;
18623;SDS011;9441;51.420;7.036;2024-02-21T00:42:12;35.37;;;12.17;;
18623;SDS011;9441;51.420;7.036;2024-02-21T00:43:13;37.57;;;11.50;;
18623;SDS011;9441;51.420;7.036;2024-02-21T00:44:14;37.50;;;11.53;;
18623;SDS011;9441;51.420;7.036;2024-02-21T00:45:16;36.83;;;11.60;;
18623;SDS011;9441;51.420;7.036;2024-02-21T00:46:17;38.97;;;11.60;;
18623;SDS011;9441;51.420;7.036;2024-02-21T00:47:19;40.37;;;11.83;;
18623;SDS011;9441;51.420;7.036;2024-02-21T00:48:20;36.37;;;10.83;;
18623;SDS011;9441;51.420;7.036;2024-02-21T00:49:22;34.87;;;12.00;;
18623;SDS011;9441;51.420;7.036;2024-02-21T00:50:23;34.97;;;12.53;;
18623;SDS011;9441;51.420;7.036;2024-02-21T00:51:26;35.47;;;12.20;;
18623;SDS011;9441;51.420;7.036;2024-02-21T00:52:26;34.33;;;11.67;;
18623;SDS011;9441;51.420;7.036;2024-02-21T00:53:28;34.63;;;11.97;;
18623;SDS011;9441;51.420;7.036;2024-02-21T00:54:29;32.23;;;11.07;;
18623;SDS011;9441;51.420;7.036;2024-02-21T00:55:31;35.77;;;10.83;;
18623;SDS011;9441;51.420;7.036;2024-02-21T00:56:32;37.07;;;12.10;;
18623;SDS011;9441;51.420;7.036;2024-02-21T00:57:36;38.73;;;12.77;;
18623;SDS011;9441;51.420;7.036;2024-02-21T00:58:37;38.50;;;12.13;;
18623;SDS011;9441;51.420;7.036;2024-02-21T00:59:39;38.17;;;11.93;;
18623;SDS011;9441;51.420;7.036;2024-02-21T01:00:40;36.40;;;11.73;;
18623;SDS011;9441;51.420;7.036;2024-02-21T01:01:42;39.50;;;11.87;;
18623;SDS011;9441;51.420;7.036;2024-02-21T01:02:43;38.40;;;12.80;;
18623;SDS011;9441;51.420;7.036;2024-02-21T01:03:45;38.03;;;12.00;;
18623;SDS011;9441;51.420;7.036;2024-02-21T01:04:46;31.77;;;11.13;;
18623;SDS011;9441;51.420;7.036;2024-02-21T01:05:48;45.40;;;11.77;;
18623;SDS011;9441;51.420;7.036;2024-02-21T01:06:49;37.50;;;11.27;;
18623;SDS011;9441;51.420;7.036;2024-02-21T01:07:51;38.60;;;12.10;;
18623;SDS011;9441;51.420;7.036;2024-02-21T01:08:51;39.83;;;12.43;;
18623;SDS011;9441;51.420;7.036;2024-02-21T01:09:53;33.97;;;11.63;;
18623;SDS011;9441;51.420;7.036;2024-02-21T01:10:54;31.67;;;12.27;;
18623;SDS011;9441;51.420;7.036;2024-02-21T01:11:56;36.67;;;12.10;;
18623;SDS011;9441;51.420;7.036;2024-02-21T01:12:59;36.93;;;12.47;;
18623;SDS011;9441;51.420;7.036;2024-02-21T01:14:01;37.40;;;12.30;;
18623;SDS011;9441;51.420;7.036;2024-02-21T01:15:02;33.07;;;11.90;;
18623;SDS011;9441;51.420;7.036;2024-02-21T01:16:05;43.17;;;12.47;;
18623;SDS011;9441;51.420;7.036;2024-02-21T01:17:06;35.43;;;12.13;;
18623;SDS011;9441;51.420;7.036;2024-02-21T01:18:08;33.53;;;11.77;;
18623;SDS011;9441;51.420;7.036;2024-02-21T01:19:09;38.40;;;11.70;;
18623;SDS011;9441;51.420;7.036;2024-02-21T01:20:11;36.23;;;12.07;;
18623;SDS011;9441;51.420;7.036;2024-02-21T01:21:12;38.57;;;11.50;;
18623;SDS011;9441;51.420;7.036;2024-02-21T01:22:15;36.83;;;12.60;;
18623;SDS011;9441;51.420;7.036;2024-02-21T01:23:16;32.77;;;11.57;;
18623;SDS011;9441;51.420;7.036;2024-02-21T01:24:18;34.40;;;11.90;;
18623;SDS011;9441;51.420;7.036;2024-02-21T01:25:19;34.83;;;12.43;;
18623;SDS011;9441;51.420;7.036;2024-02-21T01:26:21;29.27;;;11.47;;
18623;SDS011;9441;51.420;7.036;2024-02-21T01:27:22;35.93;;;12.07;;
18623;SDS011;9441;51.420;7.036;2024-02-21T01:28:25;39.23;;;12.77;;
18623;SDS011;9441;51.420;7.036;2024-02-21T01:29:26;37.53;;;11.77;;
18623;SDS011;9441;51.420;7.036;2024-02-21T01:30:28;35.90;;;12.03;;
18623;SDS011;9441;51.420;7.036;2024-02-21T01:31:29;31.90;;;11.00;;
18623;SDS011;9441;51.420;7.036;2024-02-21T01:32:31;35.70;;;11.90;;
18623;SDS011;9441;51.420;7.036;2024-02-21T01:33:32;29.83;;;11.87;;
18623;SDS011;9441;51.420;7.036;2024-02-21T01:34:35;39.50;;;12.07;;
18623;SDS011;9441;51.420;7.036;2024-02-21T01:35:36;38.20;;;11.93;;
18623;SDS011;9441;51.420;7.036;2024-02-21T01:36:37;36.40;;;11.57;;
18623;SDS011;9441;51.420;7.036;2024-02-21T01:37:39;34.10;;;12.40;;
18623;SDS011;9441;51.420;7.036;2024-02-21T01:38:40;31.23;;;11.53;;
18623;SDS011;9441;51.420;7.036;2024-02-21T01:39:42;39.57;;;12.30;;
18623;SDS011;9441;51.420;7.036;2024-02-21T01:40:43;34.83;;;11.67;;
18623;SDS011;9441;51.420;7.036;2024-02-21T01:41:45;31.53;;;12.17;;
18623;SDS011;9441;51.420;7.036;2024-02-21T01:42:46;38.23;;;12.07;;
18623;SDS011;9441;51.420;7.036;2024-02-21T01:43:50;36.30;;;11.00;;
18623;SDS011;9441;51.420;7.036;2024-02-21T01:44:51;31.30;;;11.97;;
18623;SDS011;9441;51.420;7.036;2024-02-21T01:45:53;35.57;;;12.17;;
18623;SDS011;9441;51.420;7.036;2024-02-21T01:46:56;40.17;;;11.73;;
18623;SDS011;9441;51.420;7.036;2024-02-21T01:47:57;46.10;;;11.70;;
18623;SDS011;9441;51.420;7.036;2024-02-21T01:49:00;27.93;;;10.93;;
18623;SDS011;9441;51.420;7.036;2024-02-21T01:50:02;35.53;;;11.70;;
18623;SDS011;9441;51.420;7.036;2024-02-21T01:51:03;37.57;;;11.87;;
18623;SDS011;9441;51.420;7.036;2024-02-21T01:52:06;37.40;;;11.37;;
18623;SDS011;9441;51.420;7.036;2024-02-21T01:53:08;28.07;;;11.23;;
18623;SDS011;9441;51.420;7.036;2024-02-21T01:54:10;41.00;;;12.40;;
18623;SDS011;9441;51.420;7.036;2024-02-21T01:55:13;31.80;;;12.73;;
18623;SDS011;9441;51.420;7.036;2024-02-21T01:56:15;36.93;;;11.83;;
18623;SDS011;9441;51.420;7.036;2024-02-21T01:57:17;38.73;;;11.90;;
18623;SDS011;9441;51.420;7.036;2024-02-21T01:58:19;33.97;;;11.83;;
18623;SDS011;9441;51.420;7.036;2024-02-21T01:59:22;37.53;;;11.07;;
18623;SDS011;9441;51.420;7.036;2024-02-21T02:00:24;36.83;;;11.30;;
18623;SDS011;9441;51.420;7.036;2024-02-21T02:01:26;36.30;;;11.80;;
18623;SDS011;9441;51.420;7.036;2024-02-21T02:02:29;36.43;;;11.90;;
18623;SDS011;9441;51.420;7.036;2024-02-21T02:03:30;44.83;;;11.43;;
18623;SDS011;9441;51.420;7.036;2024-02-21T02:04:31;32.80;;;11.93;;
18623;SDS011;9441;51.420;7.036;2024-02-21T02:05:34;38.67;;;11.80;;
18623;SDS011;9441;51.420;7.036;2024-02-21T02:06:36;33.30;;;11.27;;
18623;SDS011;9441;51.420;7.036;2024-02-21T02:07:38;36.07;;;11.90;;
18623;SDS011;9441;51.420;7.036;2024-02-21T02:08:39;35.80;;;12.57;;
18623;SDS011;9441;51.420;7.036;2024-02-21T02:09:41;38.80;;;11.77;;
18623;SDS011;9441;51.420;7.036;2024-02-21T02:10:42;40.40;;;12.07;;
18623;SDS011;9441;51.420;7.036;2024-02-21T02:11:45;41.90;;;11.93;;
18623;SDS011;9441;51.420;7.036;2024-02-21T02:12:47;33.77;;;11.60;;
18623;SDS011;9441;51.420;7.036;2024-02-21T02:13:49;29.67;;;11.43;;
18623;SDS011;9441;51.420;7.036;2024-02-21T02:14:58;33.50;;;12.07;;
18623;SDS011;9441;51.420;7.036;2024-02-21T02:16:00;30.13;;;11.10;;
18623;SDS011;9441;51.420;7.036;2024-02-21T02:17:01;30.90;;;11.87;;
18623;SDS011;9441;51.420;7.036;2024-02-21T02:18:03;31.23;;;10.97;;
18623;SDS011;9441;51.420;7.036;2024-02-21T02:19:05;29.20;;;11.33;;
18623;SDS011;9441;51.420;7.036;2024-02-21T02:20:07;33.47;;;11.47;;
18623;SDS011;9441;51.420;7.036;2024-02-21T02:21:10;33.03;;;10.80;;
18623;SDS011;9441;51.420;7.036;2024-02-21T02:22:17;36.80;;;12.13;;
18623;SDS011;9441;51.420;7.036;2024-02-21T02:23:25;40.10;;;12.23;;
18623;SDS011;9441;51.420;7.036;2024-02-21T02:24:28;38.83;;;11.60;;
18623;SDS011;9441;51.420;7.036;2024-02-21T02:25:30;41.37;;;11.50;;
18623;SDS011;9441;51.420;7.036;2024-02-21T02:26:31;35.20;;;11.60;;
18623;SDS011;9441;51.420;7.036;2024-02-21T02:27:33;38.87;;;11.60;;
18623;SDS011;9441;51.420;7.036;2024-02-21T02:28:42;32.23;;;11.50;;
18623;SDS011;9441;51.420;7.036;2024-02-21T02:29:44;41.50;;;11.03;;
18623;SDS011;9441;51.420;7.036;2024-02-21T02:30:45;28.63;;;10.73;;
18623;SDS011;9441;51.420;7.036;2024-02-21T02:31:48;33.13;;;11.93;;
18623;SDS011;9441;51.420;7.036;2024-02-21T02:32:49;39.23;;;11.90;;
18623;SDS011;9441;51.420;7.036;2024-02-21T02:33:50;32.53;;;12.13;;
18623;SDS011;9441;51.420;7.036;2024-02-21T02:34:52;30.67;;;10.87;;
18623;SDS011;9441;51.420;7.036;2024-02-21T02:35:53;28.37;;;10.70;;
18623;SDS011;9441;51.420;7.036;2024-02-21T02:36:54;31.27;;;12.00;;
18623;SDS011;9441;51.420;7.036;2024-02-21T02:37:56;33.53;;;11.53;;
18623;SDS011;9441;51.420;7.036;2024-02-21T02:38:59;33.67;;;10.73;;
18623;SDS011;9441;51.420;7.036;2024-02-21T02:40:01;32.63;;;11.43;;
18623;SDS011;9441;51.420;7.036;2024-02-21T02:41:04;30.10;;;11.70;;
18623;SDS011;9441;51.420;7.036;2024-02-21T02:42:06;31.80;;;11.27;;
18623;SDS011;9441;51.420;7.036;2024-02-21T02:43:07;31.07;;;11.77;;
18623;SDS011;9441;51.420;7.036;2024-02-21T02:44:09;37.90;;;11.83;;
18623;SDS011;9441;51.420;7.036;2024-02-21T02:45:10;38.03;;;11.13;;
18623;SDS011;9441;51.420;7.036;2024-02-21T02:46:12;36.87;;;11.90;;
18623;SDS011;9441;51.420;7.036;2024-02-21T02:47:13;29.00;;;10.50;;
18623;SDS011;9441;51.420;7.036;2024-02-21T02:48:15;36.20;;;11.30;;
18623;SDS011;9441;51.420;7.036;2024-02-21T02:49:16;35.70;;;11.07;;
18623;SDS011;9441;51.420;7.036;2024-02-21T02:50:18;29.73;;;11.10;;
18623;SDS011;9441;51.420;7.036;2024-02-21T02:51:19;37.20;;;11.50;;
18623;SDS011;9441;51.420;7.036;2024-02-21T02:52:21;29.57;;;11.00;;
18623;SDS011;9441;51.420;7.036;2024-02-21T02:53:22;40.00;;;11.60;;
18623;SDS011;9441;51.420;7.036;2024-02-21T02:54:25;31.43;;;11.70;;
18623;SDS011;9441;51.420;7.036;2024-02-21T02:55:26;33.73;;;11.47;;
18623;SDS011;9441;51.420;7.036;2024-02-21T02:56:28;34.03;;;11.07;;
18623;SDS011;9441;51.420;7.036;2024-02-21T02:57:29;37.07;;;11.63;;
18623;SDS011;9441;51.420;7.036;2024-02-21T02:58:31;37.23;;;11.33;;
18623;SDS011;9441;51.420;7.036;2024-02-21T02:59:32;36.73;;;11.30;;
18623;SDS011;9441;51.420;7.036;2024-02-21T03:00:34;32.73;;;11.70;;
18623;SDS011;9441;51.420;7.036;2024-02-21T03:01:36;32.87;;;11.83;;
18623;SDS011;9441;51.420;7.036;2024-02-21T03:02:38;28.90;;;10.87;;
18623;SDS011;9441;51.420;7.036;2024-02-21T03:03:41;36.23;;;11.50;;
18623;SDS011;9441;51.420;7.036;2024-02-21T03:04:42;27.40;;;10.77;;
18623;SDS011;9441;51.420;7.036;2024-02-21T03:05:45;35.87;;;11.43;;
18623;SDS011;9441;51.420;7.036;2024-02-21T03:06:46;34.43;;;11.53;;
18623;SDS011;9441;51.420;7.036;2024-02-21T03:07:48;39.70;;;11.80;;
18623;SDS011;9441;51.420;7.036;2024-02-21T03:08:49;28.37;;;10.97;;
18623;SDS011;9441;51.420;7.036;2024-02-21T03:09:56;31.50;;;11.03;;
18623;SDS011;9441;51.420;7.036;2024-02-21T03:10:57;31.70;;;10.57;;
18623;SDS011;9441;51.420;7.036;2024-02-21T03:11:59;33.93;;;10.70;;
18623;SDS011;9441;51.420;7.036;2024-02-21T03:13:03;33.00;;;11.37;;
18623;SDS011;9441;51.420;7.036;2024-02-21T03:14:05;29.70;;;9.83;;
18623;SDS011;9441;51.420;7.036;2024-02-21T03:15:06;31.17;;;11.43;;
18623;SDS011;9441;51.420;7.036;2024-02-21T03:16:08;33.73;;;11.80;;
18623;SDS011;9441;51.420;7.036;2024-02-21T03:17:09;29.97;;;10.70;;
18623;SDS011;9441;51.420;7.036;2024-02-21T03:18:11;33.33;;;10.30;;
18623;SDS011;9441;51.420;7.036;2024-02-21T03:19:13;27.53;;;10.40;;
18623;SDS011;9441;51.420;7.036;2024-02-21T03:20:15;39.80;;;10.77;;
18623;SDS011;9441;51.420;7.036;2024-02-21T03:21:16;30.93;;;10.73;;
18623;SDS011;9441;51.420;7.036;2024-02-21T03:22:18;34.87;;;10.30;;
18623;SDS011;9441;51.420;7.036;2024-02-21T03:23:19;29.13;;;11.30;;
18623;SDS011;9441;51.420;7.036;2024-02-21T03:24:21;30.00;;;10.40;;
18623;SDS011;9441;51.420;7.036;2024-02-21T03:25:23;33.10;;;10.17;;
18623;SDS011;9441;51.420;7.036;2024-02-21T03:26:25;33.17;;;10.97;;
18623;SDS011;9441;51.420;7.036;2024-02-21T03:27:26;28.80;;;10.90;;
18623;SDS011;9441;51.420;7.036;2024-02-21T03:28:28;32.53;;;10.90;;
18623;SDS011;9441;51.420;7.036;2024-02-21T03:29:29;29.53;;;10.57;;
18623;SDS011;9441;51.420;7.036;2024-02-21T03:30:30;34.10;;;10.70;;
18623;SDS011;9441;51.420;7.036;2024-02-21T03:31:34;35.83;;;11.10;;
18623;SDS011;9441;51.420;7.036;2024-02-21T03:32:35;29.50;;;10.17;;
18623;SDS011;9441;51.420;7.036;2024-02-21T03:33:39;28.57;;;9.87;;
18623;SDS011;9441;51.420;7.036;2024-02-21T03:34:40;28.67;;;10.43;;
18623;SDS011;9441;51.420;7.036;2024-02-21T03:35:42;29.90;;;10.23;;
18623;SDS011;9441;51.420;7.036;2024-02-21T03:36:43;30.23;;;10.33;;
18623;SDS011;9441;51.420;7.036;2024-02-21T03:37:45;33.47;;;10.77;;
18623;SDS011;9441;51.420;7.036;2024-02-21T03:38:46;31.13;;;10.33;;
18623;SDS011;9441;51.420;7.036;2024-02-21T03:39:48;34.33;;;11.00;;
18623;SDS011;9441;51.420;7.036;2024-02-21T03:40:50;27.30;;;10.50;;
18623;SDS011;9441;51.420;7.036;2024-02-21T03:41:52;46.67;;;11.33;;
18623;SDS011;9441;51.420;7.036;2024-02-21T03:42:54;25.70;;;10.00;;
18623;SDS011;9441;51.420;7.036;2024-02-21T03:43:56;37.43;;;10.97;;
18623;SDS011;9441;51.420;7.036;2024-02-21T03:44:57;33.33;;;10.60;;
18623;SDS011;9441;51.420;7.036;2024-02-21T03:45:59;34.00;;;11.53;;
18623;SDS011;9441;51.420;7.036;2024-02-21T03:47:00;31.27;;;10.87;;
18623;SDS011;9441;51.420;7.036;2024-02-21T03:48:02;26.80;;;9.77;;
18623;SDS011;9441;51.420;7.036;2024-02-21T03:49:03;31.20;;;10.30;;
18623;SDS011;9441;51.420;7.036;2024-02-21T03:50:05;33.40;;;10.43;;
18623;SDS011;9441;51.420;7.036;2024-02-21T03:51:07;32.20;;;10.83;;
18623;SDS011;9441;51.420;7.036;2024-02-21T03:52:09;30.67;;;10.83;;
18623;SDS011;9441;51.420;7.036;2024-02-21T03:53:10;29.47;;;10.07;;
18623;SDS011;9441;51.420;7.036;2024-02-21T03:54:12;30.90;;;10.53;;
18623;SDS011;9441;51.420;7.036;2024-02-21T03:55:13;29.40;;;10.33;;
18623;SDS011;9441;51.420;7.036;2024-02-21T03:56:17;29.10;;;9.83;;
18623;SDS011;9441;51.420;7.036;2024-02-21T03:57:18;28.50;;;9.63;;
18623;SDS011;9441;51.420;7.036;2024-02-21T03:58:19;32.63;;;9.90;;
18623;SDS011;9441;51.420;7.036;2024-02-21T03:59:21;26.93;;;10.27;;
18623;SDS011;9441;51.420;7.036;2024-02-21T04:00:23;28.33;;;10.33;;
18623;SDS011;9441;51.420;7.036;2024-02-21T04:01:24;25.30;;;9.93;;
18623;SDS011;9441;51.420;7.036;2024-02-21T04:02:26;23.07;;;9.90;;
18623;SDS011;9441;51.420;7.036;2024-02-21T04:03:27;35.10;;;11.27;;
18623;SDS011;9441;51.420;7.036;2024-02-21T04:04:29;28.50;;;10.13;;
18623;SDS011;9441;51.420;7.036;2024-02-21T04:05:30;29.97;;;10.47;;
18623;SDS011;9441;51.420;7.036;2024-02-21T04:06:32;29.47;;;10.50;;
18623;SDS011;9441;51.420;7.036;2024-02-21T04:07:33;25.67;;;10.10;;
18623;SDS011;9441;51.420;7.036;2024-02-21T04:08:35;30.63;;;10.10;;
18623;SDS011;9441;51.420;7.036;2024-02-21T04:09:36;26.30;;;9.90;;
18623;SDS011;9441;51.420;7.036;2024-02-21T04:10:38;21.33;;;9.53;;
18623;SDS011;9441;51.420;7.036;2024-02-21T04:11:40;24.83;;;10.13;;
18623;SDS011;9441;51.420;7.036;2024-02-21T04:12:42;29.30;;;10.73;;
18623;SDS011;9441;51.420;7.036;2024-02-21T04:13:43;27.00;;;9.83;;
18623;SDS011;9441;51.420;7.036;2024-02-21T04:14:45;23.27;;;9.60;;
18623;SDS011;9441;51.420;7.036;2024-02-21T04:15:46;29.70;;;9.73;;
18623;SDS011;9441;51.420;7.036;2024-02-21T04:16:48;31.33;;;11.17;;
18623;SDS011;9441;51.420;7.036;2024-02-21T04:17:49;31.90;;;10.67;;
18623;SDS011;9441;51.420;7.036;2024-02-21T04:18:51;26.00;;;10.20;;
18623;SDS011;9441;51.420;7.036;2024-02-21T04:19:53;28.63;;;10.47;;
18623;SDS011;9441;51.420;7.036;2024-02-21T04:21:05;27.20;;;10.20;;
18623;SDS011;9441;51.420;7.036;2024-02-21T04:22:06;29.53;;;10.57;;
18623;SDS011;9441;51.420;7.036;2024-02-21T04:23:08;29.00;;;9.60;;
18623;SDS011;9441;51.420;7.036;2024-02-21T04:24:09;28.67;;;10.87;;
18623;SDS011;9441;51.420;7.036;2024-02-21T04:25:11;28.63;;;9.07;;
18623;SDS011;9441;51.420;7.036;2024-02-21T04:26:13;29.83;;;10.60;;
18623;SDS011;9441;51.420;7.036;2024-02-21T04:27:16;25.97;;;9.60;;
18623;SDS011;9441;51.420;7.036;2024-02-21T04:28:17;29.83;;;9.43;;
18623;SDS011;9441;51.420;7.036;2024-02-21T04:29:19;22.53;;;8.97;;
18623;SDS011;9441;51.420;7.036;2024-02-21T04:30:20;34.53;;;10.00;;
18623;SDS011;9441;51.420;7.036;2024-02-21T04:31:22;35.03;;;10.37;;
18623;SDS011;9441;51.420;7.036;2024-02-21T04:32:23;25.90;;;9.37;;
18623;SDS011;9441;51.420;7.036;2024-02-21T04:33:27;28.57;;;9.37;;
18623;SDS011;9441;51.420;7.036;2024-02-21T04:34:28;26.33;;;9.27;;
18623;SDS011;9441;51.420;7.036;2024-02-21T04:35:30;29.20;;;9.70;;
18623;SDS011;9441;51.420;7.036;2024-02-21T04:36:31;32.03;;;10.30;;
18623;SDS011;9441;51.420;7.036;2024-02-21T04:37:34;26.37;;;9.23;;
18623;SDS011;9441;51.420;7.036;2024-02-21T04:38:35;25.63;;;9.60;;
18623;SDS011;9441;51.420;7.036;2024-02-21T04:39:37;26.53;;;10.03;;
18623;SDS011;9441;51.420;7.036;2024-02-21T04:40:38;23.37;;;10.10;;
18623;SDS011;9441;51.420;7.036;2024-02-21T04:41:40;20.90;;;8.53;;
18623;SDS011;9441;51.420;7.036;2024-02-21T04:42:42;26.77;;;9.60;;
18623;SDS011;9441;51.420;7.036;2024-02-21T04:43:45;25.07;;;9.27;;
18623;SDS011;9441;51.420;7.036;2024-02-21T04:44:47;32.37;;;9.40;;
18623;SDS011;9441;51.420;7.036;2024-02-21T04:45:49;28.53;;;9.87;;
18623;SDS011;9441;51.420;7.036;2024-02-21T04:46:50;24.60;;;9.50;;
18623;SDS011;9441;51.420;7.036;2024-02-21T04:47:52;29.27;;;9.60;;
18623;SDS011;9441;51.420;7.036;2024-02-21T04:48:53;21.97;;;9.23;;
18623;SDS011;9441;51.420;7.036;2024-02-21T04:49:55;33.30;;;10.37;;
18623;SDS011;9441;51.420;7.036;2024-02-21T04:50:56;29.27;;;9.33;;
18623;SDS011;9441;51.420;7.036;2024-02-21T04:51:57;26.57;;;8.77;;
18623;SDS011;9441;51.420;7.036;2024-02-21T04:52:59;21.57;;;9.77;;
18623;SDS011;9441;51.420;7.036;2024-02-21T04:54:00;23.87;;;9.30;;
18623;SDS011;9441;51.420;7.036;2024-02-21T04:55:04;25.40;;;9.50;;
18623;SDS011;9441;51.420;7.036;2024-02-21T04:56:06;20.97;;;9.00;;
18623;SDS011;9441;51.420;7.036;2024-02-21T04:57:07;30.37;;;9.60;;
18623;SDS011;9441;51.420;7.036;2024-02-21T04:58:11;26.93;;;9.27;;
18623;SDS011;9441;51.420;7.036;2024-02-21T04:59:12;24.17;;;8.50;;
18623;SDS011;9441;51.420;7.036;2024-02-21T05:00:15;22.23;;;9.20;;
18623;SDS011;9441;51.420;7.036;2024-02-21T05:01:16;28.17;;;8.50;;
18623;SDS011;9441;51.420;7.036;2024-02-21T05:02:18;25.97;;;8.33;;
18623;SDS011;9441;51.420;7.036;2024-02-21T05:03:22;27.10;;;8.60;;
18623;SDS011;9441;51.420;7.036;2024-02-21T05:04:24;31.73;;;9.13;;
18623;SDS011;9441;51.420;7.036;2024-02-21T05:05:25;24.00;;;8.80;;
18623;SDS011;9441;51.420;7.036;2024-02-21T05:06:27;25.70;;;8.93;;
18623;SDS011;9441;51.420;7.036;2024-02-21T05:07:28;23.03;;;9.33;;
18623;SDS011;9441;51.420;7.036;2024-02-21T05:08:30;19.50;;;8.63;;
18623;SDS011;9441;51.420;7.036;2024-02-21T05:09:31;25.53;;;8.60;;
18623;SDS011;9441;51.420;7.036;2024-02-21T05:10:33;19.10;;;7.83;;
18623;SDS011;9441;51.420;7.036;2024-02-21T05:11:34;21.07;;;8.30;;
18623;SDS011;9441;51.420;7.036;2024-02-21T05:12:36;24.50;;;8.70;;
18623;SDS011;9441;51.420;7.036;2024-02-21T05:13:38;23.03;;;8.50;;
18623;SDS011;9441;51.420;7.036;2024-02-21T05:14:40;21.57;;;7.93;;
18623;SDS011;9441;51.420;7.036;2024-02-21T05:15:41;20.70;;;8.23;;
18623;SDS011;9441;51.420;7.036;2024-02-21T05:16:43;20.93;;;8.10;;
18623;SDS011;9441;51.420;7.036;2024-02-21T05:17:44;18.57;;;8.03;;
18623;SDS011;9441;51.420;7.036;2024-02-21T05:18:46;24.77;;;8.00;;
18623;SDS011;9441;51.420;7.036;2024-02-21T05:19:47;21.03;;;8.53;;
18623;SDS011;9441;51.420;7.036;2024-02-21T05:20:49;23.10;;;8.57;;
18623;SDS011;9441;51.420;7.036;2024-02-21T05:21:50;24.47;;;9.07;;
18623;SDS011;9441;51.420;7.036;2024-02-21T05:22:52;18.80;;;8.33;;
18623;SDS011;9441;51.420;7.036;2024-02-21T05:23:53;24.73;;;8.57;;
18623;SDS011;9441;51.420;7.036;2024-02-21T05:24:55;23.63;;;8.13;;
18623;SDS011;9441;51.420;7.036;2024-02-21T05:25:56;17.67;;;7.50;;
18623;SDS011;9441;51.420;7.036;2024-02-21T05:26:57;22.40;;;8.07;;
18623;SDS011;9441;51.420;7.036;2024-02-21T05:27:59;29.10;;;8.57;;
18623;SDS011;9441;51.420;7.036;2024-02-21T05:29:03;22.73;;;8.23;;
18623;SDS011;9441;51.420;7.036;2024-02-21T05:30:06;21.50;;;8.23;;
18623;SDS011;9441;51.420;7.036;2024-02-21T05:31:07;26.80;;;8.33;;
18623;SDS011;9441;51.420;7.036;2024-02-21T05:32:09;22.90;;;7.97;;
18623;SDS011;9441;51.420;7.036;2024-02-21T05:33:10;20.00;;;8.10;;
18623;SDS011;9441;51.420;7.036;2024-02-21T05:34:13;26.00;;;8.53;;
18623;SDS011;9441;51.420;7.036;2024-02-21T05:35:14;21.27;;;7.40;;
18623;SDS011;9441;51.420;7.036;2024-02-21T05:36:15;16.70;;;7.47;;
18623;SDS011;9441;51.420;7.036;2024-02-21T05:37:17;23.63;;;8.30;;
18623;SDS011;9441;51.420;7.036;2024-02-21T05:38:18;28.93;;;8.17;;
18623;SDS011;9441;51.420;7.036;2024-02-21T05:39:20;19.30;;;7.73;;
18623;SDS011;9441;51.420;7.036;2024-02-21T05:40:23;25.20;;;8.10;;
18623;SDS011;9441;51.420;7.036;2024-02-21T05:41:25;21.53;;;7.60;;
18623;SDS011;9441;51.420;7.036;2024-02-21T05:42:26;19.57;;;7.50;;
18623;SDS011;9441;51.420;7.036;2024-02-21T05:43:28;27.67;;;8.00;;
18623;SDS011;9441;51.420;7.036;2024-02-21T05:44:30;21.60;;;7.73;;
18623;SDS011;9441;51.420;7.036;2024-02-21T05:45:32;23.63;;;8.10;;
18623;SDS011;9441;51.420;7.036;2024-02-21T05:46:33;18.47;;;7.77;;
18623;SDS011;9441;51.420;7.036;2024-02-21T05:47:35;20.03;;;7.70;;
18623;SDS011;9441;51.420;7.036;2024-02-21T05:48:36;17.73;;;7.77;;
18623;SDS011;9441;51.420;7.036;2024-02-21T05:49:39;18.20;;;7.27;;
18623;SDS011;9441;51.420;7.036;2024-02-21T05:50:40;18.63;;;7.03;;
18623;SDS011;9441;51.420;7.036;2024-02-21T05:51:42;17.37;;;7.67;;
18623;SDS011;9441;51.420;7.036;2024-02-21T05:52:43;19.87;;;6.87;;
18623;SDS011;9441;51.420;7.036;2024-02-21T05:53:45;20.73;;;7.60;;
18623;SDS011;9441;51.420;7.036;2024-02-21T05:54:46;16.87;;;6.73;;
18623;SDS011;9441;51.420;7.036;2024-02-21T05:55:50;23.53;;;7.50;;
18623;SDS011;9441;51.420;7.036;2024-02-21T05:56:51;24.17;;;7.63;;
18623;SDS011;9441;51.420;7.036;2024-02-21T05:57:53;24.20;;;7.70;;
18623;SDS011;9441;51.420;7.036;2024-02-21T05:58:56;18.77;;;6.80;;
18623;SDS011;9441;51.420;7.036;2024-02-21T05:59:58;22.60;;;7.40;;
18623;SDS011;9441;51.420;7.036;2024-02-21T06:01:00;20.73;;;7.40;;
18623;SDS011;9441;51.420;7.036;2024-02-21T06:02:03;22.60;;;8.00;;
18623;SDS011;9441;51.420;7.036;2024-02-21T06:03:04;18.90;;;7.00;;
18623;SDS011;9441;51.420;7.036;2024-02-21T06:04:07;20.70;;;7.17;;
18623;SDS011;9441;51.420;7.036;2024-02-21T06:05:08;21.17;;;7.37;;
18623;SDS011;9441;51.420;7.036;2024-02-21T06:06:10;19.90;;;7.67;;
18623;SDS011;9441;51.420;7.036;2024-02-21T06:07:11;21.53;;;6.80;;
18623;SDS011;9441;51.420;7.036;2024-02-21T06:08:13;21.40;;;7.33;;